Time,TemperatureF,DewpointF,PressureIn,WindDirection,WindDirectionDegrees,WindSpeedMPH,WindSpeedGustMPH,Humidity,HourlyPrecipIn,Conditions,Clouds,dailyrainin,SolarRadiationWatts/m^2,SoftwareType,DateUTC
2013-06-20 00:02:00,47.0,46.0,-100.00,NE,39,0.0,15.0,96,0.00,,,0.20,10.700000,,2013-06-20 08:02:00,
2013-06-20 00:11:00,47.0,46.0,-100.00,NE,39,0.0,15.0,96,0.00,,,0.20,10.700000,,2013-06-20 08:11:00,
2013-06-20 00:22:00,47.0,46.0,-100.00,NE,39,0.0,15.0,96,0.00,,,0.20,10.700000,,2013-06-20 08:22:00,
2013-06-20 00:53:00,47.0,46.0,-100.00,SW,214,0.0,7.0,97,0.00,,,0.20,1.700000,,2013-06-20 08:53:00,
2013-06-20 01:01:00,47.0,46.0,-100.00,SW,214,0.0,7.0,97,0.00,,,0.20,1.700000,,2013-06-20 09:01:00,
2013-06-20 01:11:00,47.0,46.0,-100.00,SW,214,0.0,7.0,97,0.00,,,0.20,1.700000,,2013-06-20 09:11:00,
2013-06-20 01:22:00,47.0,46.0,-100.00,SW,214,0.0,7.0,97,0.00,,,0.20,1.700000,,2013-06-20 09:22:00,
2013-06-20 01:52:00,46.0,46.0,-100.00,SSE,154,3.0,9.0,98,0.00,,,0.20,0.800000,,2013-06-20 09:52:00,
2013-06-20 02:01:00,46.0,46.0,-100.00,SSE,154,3.0,9.0,98,0.00,,,0.20,0.800000,,2013-06-20 10:01:00,
2013-06-20 02:11:00,46.0,46.0,-100.00,SSE,154,3.0,9.0,98,0.00,,,0.20,0.800000,,2013-06-20 10:11:00,
2013-06-20 02:22:00,46.0,46.0,-100.00,SSE,154,3.0,9.0,98,0.00,,,0.20,0.800000,,2013-06-20 10:22:00,
2013-06-20 02:53:00,46.0,45.0,-100.00,ESE,104,0.0,6.0,98,0.00,,,0.20,0.800000,,2013-06-20 10:53:00,
2013-06-20 03:02:00,46.0,45.0,-100.00,ESE,104,0.0,6.0,98,0.00,,,0.20,0.800000,,2013-06-20 11:02:00,
2013-06-20 03:11:00,46.0,45.0,-100.00,ESE,104,0.0,6.0,98,0.00,,,0.20,0.800000,,2013-06-20 11:11:00,
2013-06-20 03:22:00,46.0,45.0,-100.00,ESE,104,0.0,6.0,98,0.00,,,0.20,0.800000,,2013-06-20 11:22:00,
2013-06-20 03:53:00,45.0,45.0,-100.00,SSW,209,0.0,4.0,98,0.00,,,0.20,0.800000,,2013-06-20 11:53:00,
2013-06-20 04:02:00,45.0,45.0,-100.00,SSW,209,0.0,4.0,98,0.00,,,0.20,0.800000,,2013-06-20 12:02:00,
2013-06-20 04:11:00,45.0,45.0,-100.00,SSW,209,0.0,4.0,98,0.00,,,0.20,0.800000,,2013-06-20 12:11:00,
2013-06-20 04:22:00,45.0,45.0,-100.00,SSW,209,0.0,4.0,98,0.00,,,0.20,0.800000,,2013-06-20 12:22:00,
2013-06-20 04:53:00,46.0,45.0,-100.00,SW,216,1.0,2.0,98,0.00,,,0.20,2.100000,,2013-06-20 12:53:00,
2013-06-20 05:02:00,46.0,45.0,-100.00,SW,216,1.0,2.0,98,0.00,,,0.20,2.100000,,2013-06-20 13:02:00,
2013-06-20 05:11:00,46.0,45.0,-100.00,SW,216,1.0,2.0,98,0.00,,,0.20,2.100000,,2013-06-20 13:11:00,
2013-06-20 05:22:00,46.0,45.0,-100.00,SW,216,1.0,2.0,98,0.00,,,0.20,2.100000,,2013-06-20 13:22:00,
2013-06-20 05:53:00,45.0,45.0,-100.00,East,97,2.0,87.0,99,0.01,,,-99.99,9.400000,,2013-06-20 13:53:00,
2013-06-20 06:01:00,45.0,45.0,-100.00,East,97,2.0,87.0,99,0.01,,,-99.99,9.400000,,2013-06-20 14:01:00,
2013-06-20 06:11:00,45.0,45.0,-100.00,East,97,2.0,87.0,99,0.01,,,-99.99,9.400000,,2013-06-20 14:11:00,
2013-06-20 06:22:00,45.0,45.0,-100.00,East,97,2.0,87.0,99,0.01,,,-99.99,9.400000,,2013-06-20 14:22:00,
2013-06-20 06:53:00,45.0,45.0,-100.00,WNW,303,0.0,4.0,98,0.00,,,0.17,47.900002,,2013-06-20 14:53:00,
2013-06-20 07:01:00,45.0,45.0,-100.00,WNW,303,0.0,4.0,98,0.00,,,0.17,47.900002,,2013-06-20 15:01:00,
2013-06-20 07:11:00,45.0,45.0,-100.00,WNW,303,0.0,4.0,98,0.00,,,0.17,47.900002,,2013-06-20 15:11:00,
2013-06-20 07:22:00,45.0,45.0,-100.00,WNW,303,0.0,4.0,98,0.00,,,0.17,47.900002,,2013-06-20 15:22:00,
2013-06-20 07:53:00,45.0,45.0,-100.00,NNE,28,2.0,43.0,98,0.00,,,-99.99,72.800003,,2013-06-20 15:53:00,
2013-06-20 08:01:00,45.0,45.0,-100.00,NNE,28,2.0,43.0,98,0.00,,,-99.99,72.800003,,2013-06-20 16:01:00,
2013-06-20 08:11:00,45.0,45.0,-100.00,NNE,28,2.0,43.0,98,0.00,,,-99.99,72.800003,,2013-06-20 16:11:00,
2013-06-20 08:22:00,45.0,45.0,-100.00,NNE,28,2.0,43.0,98,0.00,,,-99.99,72.800003,,2013-06-20 16:22:00,
2013-06-20 08:52:00,47.0,47.0,-100.00,NNE,20,2.0,17.0,98,0.00,,,0.13,100.500000,,2013-06-20 16:52:00,
2013-06-20 09:01:00,47.0,47.0,-100.00,NNE,20,2.0,17.0,98,0.00,,,0.13,100.500000,,2013-06-20 17:01:00,
2013-06-20 09:11:00,47.0,47.0,-100.00,NNE,20,2.0,17.0,98,0.00,,,0.13,100.500000,,2013-06-20 17:11:00,
2013-06-20 09:21:00,47.0,47.0,-100.00,NNE,20,2.0,17.0,98,0.00,,,0.13,100.500000,,2013-06-20 17:21:00,
2013-06-20 09:53:00,49.0,47.0,-100.00,NNE,17,3.0,144.0,93,0.00,,,0.05,152.000000,,2013-06-20 17:53:00,
2013-06-20 10:01:00,49.0,47.0,-100.00,NNE,17,3.0,144.0,93,0.00,,,0.05,152.000000,,2013-06-20 18:01:00,
2013-06-20 10:11:00,49.0,47.0,-100.00,NNE,17,3.0,144.0,93,0.00,,,0.05,152.000000,,2013-06-20 18:11:00,
2013-06-20 10:22:00,49.0,47.0,-100.00,NNE,17,3.0,144.0,93,0.00,,,0.05,152.000000,,2013-06-20 18:22:00,
2013-06-20 10:53:00,52.0,46.0,-100.00,ENE,60,3.0,8.0,80,0.00,,,0.01,337.000000,,2013-06-20 18:53:00,
2013-06-20 11:01:00,52.0,46.0,-100.00,ENE,60,3.0,8.0,80,0.00,,,0.01,337.000000,,2013-06-20 19:01:00,
2013-06-20 11:11:00,52.0,46.0,-100.00,ENE,60,3.0,8.0,80,0.00,,,0.01,337.000000,,2013-06-20 19:11:00,
2013-06-20 11:22:00,52.0,46.0,-100.00,ENE,60,3.0,8.0,80,0.00,,,0.01,337.000000,,2013-06-20 19:22:00,
2013-06-20 11:52:00,53.0,47.0,-100.00,WSW,246,3.0,106.0,80,0.00,,,0.01,435.700012,,2013-06-20 19:52:00,
2013-06-20 12:02:00,53.0,47.0,-100.00,WSW,246,3.0,106.0,80,0.00,,,0.01,435.700012,,2013-06-20 20:02:00,
2013-06-20 12:11:00,53.0,47.0,-100.00,WSW,246,3.0,106.0,80,0.00,,,0.01,435.700012,,2013-06-20 20:11:00,
2013-06-20 12:22:00,53.0,47.0,-100.00,WSW,246,3.0,106.0,80,0.00,,,0.01,435.700012,,2013-06-20 20:22:00,
2013-06-20 12:52:00,56.0,47.0,-100.00,ESE,109,4.0,57.0,72,0.00,,,0.01,446.799988,,2013-06-20 20:52:00,
2013-06-20 13:01:00,56.0,47.0,-100.00,ESE,109,4.0,57.0,72,0.00,,,0.01,446.799988,,2013-06-20 21:01:00,
2013-06-20 13:11:00,56.0,47.0,-100.00,ESE,109,4.0,57.0,72,0.00,,,0.01,446.799988,,2013-06-20 21:11:00,
2013-06-20 14:12:00,52.0,47.0,-100.00,SE,138,8.0,10.0,83,0.00,,,0.01,546.700012,,2013-06-20 22:12:00,
2013-06-20 16:11:00,50.0,48.0,-100.00,South,178,5.0,15.0,93,0.00,,,0.01,239.000000,,2013-06-21 00:11:00,
2013-06-20 20:11:00,50.0,48.0,-100.00,NE,48,3.0,38.0,93,0.00,,,0.01,172.199997,,2013-06-21 04:11:00,